Time;durP1;ratioP1;P1;durP2;ratioP2;P2;SDS_P1;SDS_P2;PMS_P1;PMS_P2;Temp;Humidity;BMP_temperature;BMP_pressure;BME280_temperature;BME280_humidity;BME280_pressure;Samples;Min_cycle;Max_cycle;Signal;HPM_P1;HPM_P2
2023/01/11 00:01:30;;;;;;;10.48;3.75;;;;;;;5.12;69.70;98709.81;4488109;31;20123;-88
2023/01/11 00:03:55;;;;;;;10.45;3.65;;;;;;;5.06;69.67;98724.78;4488006;31;20088;-89
2023/01/11 00:06:20;;;;;;;10.40;3.45;;;;;;;4.91;69.96;98719.19;4487502;31;20123;-88
2023/01/11 00:08:46;;;;;;;11.52;4.10;;;;;;;4.82;70.50;98719.47;4486828;32;20364;-89
2023/01/11 00:11:14;;;;;;;11.15;3.80;;;;;;;4.95;69.41;98711.28;4487975;31;20111;-88
2023/01/11 00:13:39;;;;;;;9.57;3.10;;;;;;;4.95;69.89;98719.94;4487979;31;20088;-88
2023/01/11 00:16:08;;;;;;;10.38;3.58;;;;;;;4.69;71.07;98716.44;4488036;31;20119;-85
2023/01/11 00:18:33;;;;;;;11.32;3.67;;;;;;;4.81;70.42;98714.31;4487924;31;20502;-87
2023/01/11 00:21:04;;;;;;;10.68;3.70;;;;;;;4.88;69.79;98719.28;4486849;32;20089;-86
2023/01/11 00:23:36;;;;;;;10.30;3.47;;;;;;;4.89;69.85;98713.16;4487151;32;20111;-85
2023/01/11 00:26:06;;;;;;;10.63;3.65;;;;;;;4.85;70.15;98714.19;4487026;32;20101;-86
2023/01/11 00:28:32;;;;;;;10.52;2.90;;;;;;;5.16;68.87;98710.56;4488254;31;20120;-86
2023/01/11 00:30:57;;;;;;;9.90;3.33;;;;;;;4.84;69.64;98722.91;4486844;32;20119;-86
2023/01/11 00:33:23;;;;;;;10.82;3.30;;;;;;;4.75;70.42;98723.19;4488175;31;20135;-85
2023/01/11 00:35:52;;;;;;;10.45;3.17;;;;;;;5.02;69.19;98721.47;4488107;31;20097;-83
2023/01/11 00:47:55;;;;;;;13.13;3.22;;;;;;;4.92;69.60;98720.91;4486923;32;20425;-85
2023/01/11 00:49:15;;;;;;;9.43;3.12;;;;;;;4.72;70.10;98737.19;4487092;32;20123;-86
2023/01/11 00:51:41;;;;;;;10.65;3.22;;;;;;;4.89;69.44;98739.28;4486484;32;20390;-86
2023/01/11 00:54:06;;;;;;;9.73;3.33;;;;;;;4.78;69.52;98740.53;4487498;31;20372;-86
2023/01/11 00:56:32;;;;;;;11.32;3.15;;;;;;;4.55;70.82;98736.88;4487775;31;20135;-86
2023/01/11 00:58:57;;;;;;;9.77;3.20;;;;;;;4.78;69.62;98741.38;4487642;31;20092;-85
2023/01/11 01:01:23;;;;;;;10.70;3.53;;;;;;;4.47;70.83;98738.88;4486413;32;20135;-86
2023/01/11 01:03:48;;;;;;;9.38;3.17;;;;;;;4.57;70.19;98739.44;4486296;32;20110;-86
2023/01/11 01:06:13;;;;;;;10.30;3.55;;;;;;;4.48;71.13;98751.87;4487464;31;20483;-86
2023/01/11 01:08:39;;;;;;;9.88;3.15;;;;;;;4.80;69.73;98752.59;4487634;31;20167;-85
2023/01/11 01:11:04;;;;;;;11.02;3.35;;;;;;;4.49;70.75;98750.94;4487652;31;20108;-85
2023/01/11 01:16:14;;;;;;;10.38;3.95;;;;;;;4.59;69.98;98754.12;4487649;32;20165;-85
2023/01/11 01:18:39;;;;;;;9.43;3.30;;;;;;;4.39;71.04;98757.34;4487529;31;20088;-86
2023/01/11 01:21:04;;;;;;;10.88;3.55;;;;;;;4.76;69.58;98752.78;4487276;31;20107;-85
2023/01/11 01:23:30;;;;;;;11.82;3.50;;;;;;;4.41;70.99;98757.31;4487415;31;20087;-86
2023/01/11 01:25:55;;;;;;;9.93;3.05;;;;;;;4.38;70.86;98755.62;4487333;31;20096;-86
2023/01/11 01:28:21;;;;;;;10.60;3.42;;;;;;;4.24;71.41;98756.06;4487476;31;20136;-85
2023/01/11 01:30:52;;;;;;;10.15;3.15;;;;;;;4.67;69.83;98746.06;4487533;31;20084;-86
2023/01/11 01:33:17;;;;;;;10.85;3.75;;;;;;;4.64;69.83;98749.63;4486391;32;20084;-85
2023/01/11 01:35:43;;;;;;;9.93;3.30;;;;;;;4.45;70.61;98766.75;4486217;32;20101;-86
2023/01/11 01:38:08;;;;;;;10.23;3.40;;;;;;;4.51;69.88;98756.97;4486224;32;20122;-86
2023/01/11 01:40:42;;;;;;;9.10;3.12;;;;;;;4.65;69.70;98753.94;4487367;31;20112;-86
2023/01/11 01:43:13;;;;;;;10.43;3.17;;;;;;;4.55;69.82;98749.06;4486101;32;20193;-86
2023/01/11 01:45:40;;;;;;;8.93;2.83;;;;;;;4.67;69.38;98764.34;4487271;31;20118;-85
2023/01/11 01:48:06;;;;;;;13.73;3.67;;;;;;;4.34;70.57;98756.63;4486228;32;20151;-83
2023/01/11 01:50:35;;;;;;;9.48;3.08;;;;;;;4.31;70.64;98767.16;4486227;32;20081;-84
2023/01/11 01:53:19;;;;;;;10.50;3.15;;;;;;;4.48;70.17;98764.03;4487338;31;20106;-83
2023/01/11 01:55:48;;;;;;;10.95;3.20;;;;;;;4.32;70.97;98763.66;4487385;31;20467;-84
2023/01/11 01:58:17;;;;;;;11.15;3.50;;;;;;;4.39;70.36;98765.19;4487364;31;20096;-84
2023/01/11 02:00:44;;;;;;;10.20;3.53;;;;;;;4.48;70.55;98751.00;4487403;31;20156;-86
2023/01/11 02:03:14;;;;;;;10.68;3.40;;;;;;;4.44;70.65;98771.12;4486135;32;20436;-86
2023/01/11 02:05:39;;;;;;;11.35;3.97;;;;;;;4.54;70.23;98774.31;4487247;31;20104;-83
2023/01/11 02:08:10;;;;;;;10.70;3.87;;;;;;;4.20;71.38;98766.63;4486055;32;20123;-83
2023/01/11 02:10:36;;;;;;;12.05;3.92;;;;;;;4.17;71.58;98762.34;4486018;32;20447;-83
2023/01/11 02:13:05;;;;;;;10.48;3.97;;;;;;;4.12;72.22;98764.25;4485983;32;20144;-83
2023/01/11 02:15:31;;;;;;;12.88;4.25;;;;;;;4.26;71.11;98769.91;4486050;32;20577;-85
2023/01/11 02:17:56;;;;;;;11.45;4.50;;;;;;;4.53;70.44;98763.00;4486026;32;20161;-90
2023/01/11 02:20:27;;;;;;;11.65;4.12;;;;;;;4.17;71.39;98767.53;4487007;31;20084;-87
2023/01/11 02:23:38;;;;;;;11.80;3.97;;;;;;;4.30;71.17;98779.34;4487143;32;20076;-89
2023/01/11 02:26:06;;;;;;;10.48;3.78;;;;;;;4.55;70.31;98785.59;4409932;32;20195;-90
2023/01/11 02:28:46;;;;;;;;;;;;;;;4.40;70.84;98786.91;4423147;32;20153;-88
2023/01/11 02:31:20;;;;;;;11.90;3.62;;;;;;;4.27;70.42;98783.81;4422684;32;20339;-88
2023/01/11 02:34:09;;;;;;;11.57;4.00;;;;;;;4.15;71.46;98771.94;4422705;32;20562;-86
2023/01/11 02:36:53;;;;;;;13.75;4.80;;;;;;;3.98;71.79;98777.66;4415870;32;20098;-85
2023/01/11 02:39:38;;;;;;;11.77;4.10;;;;;;;4.02;71.89;98771.47;4423016;32;20098;-86
2023/01/11 02:45:32;;;;;;;13.27;4.57;;;;;;;4.29;71.03;98795.06;4411726;32;20120;-85
2023/01/11 02:48:22;;;;;;;11.95;4.03;;;;;;;4.33;70.80;98792.28;4409940;32;20110;-85
2023/01/11 02:50:47;;;;;;;12.32;4.28;;;;;;;4.29;70.75;98792.44;4422566;32;20498;-87
2023/01/11 02:53:23;;;;;;;12.50;4.57;;;;;;;4.14;71.19;98786.75;4422519;32;20113;-86
2023/01/11 02:55:51;;;;;;;12.50;4.37;;;;;;;3.89;72.46;98777.91;4417473;32;20554;-86
2023/01/11 02:58:19;;;;;;;14.13;4.53;;;;;;;4.51;70.21;98772.63;4485679;32;20092;-84
2023/01/11 03:00:45;;;;;;;13.25;4.20;;;;;;;3.87;72.46;98788.38;4485687;32;20156;-84
2023/01/11 03:03:16;;;;;;;11.32;4.40;;;;;;;3.92;71.86;98781.31;4472368;32;20115;-84
2023/01/11 03:05:49;;;;;;;12.75;4.18;;;;;;;4.11;71.37;98778.16;4486408;31;20131;-84
2023/01/11 03:08:24;;;;;;;12.43;4.32;;;;;;;4.05;71.59;98775.72;4485428;32;20116;-84
2023/01/11 03:12:50;;;;;;;12.18;4.50;;;;;;;4.14;70.77;98778.09;4485550;32;20104;-85
2023/01/11 03:14:27;;;;;;;10.82;3.70;;;;;;;4.04;71.52;98782.72;4486132;32;20404;-84
2023/01/11 03:17:20;;;;;;;10.93;4.22;;;;;;;4.22;70.76;98777.88;4485672;32;20088;-84
2023/01/11 03:19:50;;;;;;;12.73;4.25;;;;;;;4.28;70.29;98782.91;4486618;32;20119;-84
2023/01/11 03:22:27;;;;;;;11.05;4.10;;;;;;;4.11;70.71;98786.84;4472241;32;20112;-84
2023/01/11 03:25:23;;;;;;;11.68;4.28;;;;;;;4.17;70.58;98791.00;4486470;31;20085;-86
2023/01/11 03:27:55;;;;;;;11.35;4.12;;;;;;;4.19;70.55;98790.97;4469392;32;20435;-86
2023/01/11 03:30:28;;;;;;;10.93;3.87;;;;;;;4.06;70.83;98801.75;4485097;32;20112;-86
2023/01/11 03:33:08;;;;;;;11.35;3.90;;;;;;;4.04;71.00;98808.78;4486434;31;20092;-86
2023/01/11 03:35:42;;;;;;;10.57;3.83;;;;;;;4.17;70.25;98816.25;4472071;32;20397;-86
2023/01/11 03:38:21;;;;;;;11.68;4.10;;;;;;;4.48;69.30;98816.19;4486254;32;20102;-85
2023/01/11 03:40:49;;;;;;;11.57;4.35;;;;;;;4.26;69.53;98822.03;4485079;32;20139;-84
2023/01/11 03:43:15;;;;;;;;;;;;;;;4.62;68.50;98832.31;4485589;32;20109;-84
2023/01/11 03:45:46;;;;;;;11.70;4.20;;;;;;;4.60;68.72;98820.25;4485308;32;20308;-84
2023/01/11 03:48:26;;;;;;;10.98;4.12;;;;;;;4.00;70.30;98835.81;4484883;32;20111;-84
2023/01/11 03:50:53;;;;;;;10.32;3.67;;;;;;;4.73;68.17;98826.78;4471975;32;20423;-84
2023/01/11 03:53:20;;;;;;;13.80;4.15;;;;;;;4.52;68.89;98828.28;4485100;32;20108;-85
2023/01/11 03:55:48;;;;;;;11.10;3.63;;;;;;;4.66;68.34;98813.06;4482251;32;20525;-85
2023/01/11 03:58:14;;;;;;;10.15;3.85;;;;;;;4.76;68.12;98818.84;4471102;32;20156;-86
2023/01/11 04:00:40;;;;;;;15.10;4.72;;;;;;;4.45;68.47;98811.94;4468917;32;20155;-85
2023/01/11 04:03:08;;;;;;;11.25;4.37;;;;;;;4.22;69.62;98802.19;4485323;32;20092;-86
2023/01/11 04:05:34;;;;;;;11.55;4.05;;;;;;;4.10;70.24;98798.16;4470484;32;20080;-85
2023/01/11 04:07:59;;;;;;;11.95;3.97;;;;;;;4.34;69.60;98793.12;4485725;32;20120;-86
2023/01/11 04:10:24;;;;;;;13.38;4.37;;;;;;;4.38;69.41;98786.09;4471332;32;20381;-85
2023/01/11 04:12:50;;;;;;;9.95;3.92;;;;;;;4.17;70.14;98790.16;4485732;32;20096;-85
2023/01/11 04:15:16;;;;;;;14.20;4.35;;;;;;;4.46;68.61;98798.03;4485666;32;20079;-84
2023/01/11 04:17:41;;;;;;;11.85;4.00;;;;;;;4.37;69.28;98795.66;4471402;32;20080;-83
2023/01/11 04:20:11;;;;;;;11.05;3.65;;;;;;;4.60;68.44;98805.44;4485587;32;20156;-83
2023/01/11 04:22:36;;;;;;;12.18;3.85;;;;;;;4.43;68.90;98798.09;4485633;32;20122;-83
2023/01/11 04:25:02;;;;;;;11.00;4.43;;;;;;;4.64;67.94;98800.97;4470793;32;20092;-79
2023/01/11 04:27:27;;;;;;;10.00;3.42;;;;;;;4.43;68.45;98802.47;4469820;32;20164;-80
2023/01/11 04:29:53;;;;;;;12.80;4.10;;;;;;;4.44;68.53;98807.66;4483736;32;20439;-81
2023/01/11 04:32:18;;;;;;;11.00;3.87;;;;;;;4.29;68.90;98823.72;4463978;32;20092;-80
2023/01/11 04:34:44;;;;;;;11.55;3.53;;;;;;;4.31;68.93;98821.94;4469494;32;20143;-80
2023/01/11 04:37:10;;;;;;;11.57;3.85;;;;;;;4.36;69.03;98824.41;4467495;32;20105;-80
2023/01/11 04:39:36;;;;;;;11.68;3.62;;;;;;;4.34;68.91;98822.69;4455495;32;20802;-81
2023/01/11 04:42:17;;;;;;;10.93;4.05;;;;;;;4.46;68.71;98818.88;4454099;32;20096;-81
2023/01/11 04:44:43;;;;;;;10.18;3.80;;;;;;;4.53;68.32;98827.37;4470370;32;20628;-82
2023/01/11 04:47:08;;;;;;;13.02;3.75;;;;;;;4.70;67.81;98814.69;4469809;32;20093;-81
2023/01/11 04:49:33;;;;;;;11.95;4.05;;;;;;;4.19;69.45;98804.87;4454242;32;20130;-82
2023/01/11 04:51:59;;;;;;;11.05;3.58;;;;;;;4.44;68.44;98809.38;4455304;32;20154;-81
2023/01/11 04:54:24;;;;;;;12.43;4.20;;;;;;;4.31;68.94;98822.78;4455254;32;20088;-81
2023/01/11 04:56:50;;;;;;;11.65;3.85;;;;;;;4.43;68.56;98836.38;4455595;32;20138;-82
2023/01/11 04:59:15;;;;;;;11.27;3.70;;;;;;;4.00;69.80;98837.56;4454411;32;20148;-79
2023/01/11 05:01:41;;;;;;;16.62;4.15;;;;;;;4.34;68.82;98833.09;4469950;32;20130;-81
2023/01/11 05:04:06;;;;;;;12.15;3.60;;;;;;;4.40;68.66;98833.84;4469489;32;20088;-81
2023/01/11 05:06:31;;;;;;;10.13;2.95;;;;;;;4.76;67.31;98842.34;4455440;32;20440;-80
2023/01/11 05:08:57;;;;;;;10.85;3.60;;;;;;;4.92;66.53;98832.28;4469822;32;20150;-81
2023/01/11 05:11:22;;;;;;;10.18;3.42;;;;;;;4.58;67.68;98827.22;4455684;32;20112;-81
2023/01/11 05:13:48;;;;;;;13.27;4.25;;;;;;;4.56;67.75;98839.47;4469098;32;20096;-80
2023/01/11 05:16:13;;;;;;;12.18;3.97;;;;;;;4.56;67.72;98839.47;4483827;32;20121;-79
2023/01/11 05:18:43;;;;;;;10.85;3.87;;;;;;;4.72;67.01;98846.78;4485804;32;20376;-81
2023/01/11 05:21:11;;;;;;;11.00;4.10;;;;;;;4.55;67.84;98836.00;4487070;32;20107;-81
2023/01/11 05:23:37;;;;;;;12.27;4.05;;;;;;;4.11;69.26;98839.00;4473316;32;20442;-82
2023/01/11 05:26:04;;;;;;;13.15;4.80;;;;;;;4.37;68.82;98832.19;4470122;32;20116;-82
2023/01/11 05:28:30;;;;;;;11.53;3.90;;;;;;;4.52;68.37;98834.34;4471691;32;20138;-82
2023/01/11 05:30:55;;;;;;;10.55;3.67;;;;;;;4.46;68.02;98829.31;4471642;32;20080;-81
2023/01/11 05:33:20;;;;;;;12.43;3.65;;;;;;;4.56;68.00;98823.81;4471588;32;20107;-82
2023/01/11 05:35:46;;;;;;;11.77;4.00;;;;;;;4.87;66.75;98840.28;4471361;32;20103;-82
2023/01/11 05:38:11;;;;;;;11.65;3.95;;;;;;;5.00;66.47;98845.09;4470540;32;20097;-83
2023/01/11 05:40:37;;;;;;;11.15;3.95;;;;;;;4.85;66.51;98842.06;4471696;32;20149;-82
2023/01/11 05:43:03;;;;;;;14.75;4.50;;;;;;;4.62;67.57;98837.53;4471390;32;20488;-82
2023/01/11 05:45:28;;;;;;;11.77;3.95;;;;;;;4.69;67.07;98832.97;4473414;32;20107;-83
2023/01/11 05:47:54;;;;;;;12.50;3.60;;;;;;;5.08;66.11;98824.81;4478432;32;20093;-81
2023/01/11 05:50:20;;;;;;;11.25;3.92;;;;;;;5.17;65.73;98823.69;4457454;32;20176;-81
2023/01/11 05:52:45;;;;;;;12.30;4.43;;;;;;;5.27;65.36;98823.34;4457419;32;20458;-81
2023/01/11 05:55:10;;;;;;;10.27;3.55;;;;;;;4.88;66.08;98831.53;4471612;32;20077;-81
2023/01/11 05:57:39;;;;;;;11.48;4.25;;;;;;;4.43;67.83;98829.41;4471515;32;20471;-81
2023/01/11 06:00:06;;;;;;;13.10;4.18;;;;;;;4.68;67.02;98818.25;4471529;32;20100;-81
2023/01/11 06:02:31;;;;;;;11.98;3.95;;;;;;;4.83;66.62;98815.16;4480541;32;20169;-81
2023/01/11 06:04:56;;;;;;;11.60;4.30;;;;;;;4.87;66.31;98816.78;4486418;32;20092;-80
2023/01/11 06:07:23;;;;;;;11.48;4.25;;;;;;;5.27;64.68;98825.97;4486432;32;20084;-81
2023/01/11 06:09:49;;;;;;;10.73;4.28;;;;;;;4.93;65.56;98832.25;4467488;32;20164;-79
2023/01/11 06:12:14;;;;;;;12.75;3.83;;;;;;;4.73;66.62;98831.97;4469568;32;20132;-80
2023/01/11 06:14:39;;;;;;;11.95;4.20;;;;;;;4.56;67.20;98826.41;4470887;32;20421;-79
2023/01/11 06:17:05;;;;;;;13.10;4.65;;;;;;;4.46;67.70;98820.63;4468323;32;20108;-81
2023/01/11 06:19:30;;;;;;;10.88;4.28;;;;;;;4.40;68.16;98831.22;4478098;32;20377;-79
2023/01/11 06:21:56;;;;;;;10.68;4.05;;;;;;;4.79;66.38;98821.38;4470191;32;20118;-81
2023/01/11 06:24:21;;;;;;;12.00;3.95;;;;;;;4.88;66.23;98821.06;4471289;32;20495;-81
2023/01/11 06:26:46;;;;;;;12.63;4.20;;;;;;;4.78;66.88;98831.88;4471391;32;20101;-82
2023/01/11 06:29:13;;;;;;;11.48;4.53;;;;;;;4.91;66.29;98833.19;4487226;32;20122;-83
2023/01/11 06:31:38;;;;;;;11.35;3.90;;;;;;;4.80;66.27;98836.13;4487363;32;20110;-83
2023/01/11 06:34:04;;;;;;;10.40;4.68;;;;;;;5.13;65.20;98829.00;4487162;32;20487;-81
2023/01/11 06:36:29;;;;;;;11.00;3.80;;;;;;;4.96;65.71;98833.06;4486169;32;20110;-82
2023/01/11 06:38:55;;;;;;;11.60;3.97;;;;;;;4.48;67.28;98842.28;4485243;32;20096;-81
2023/01/11 06:41:20;;;;;;;10.27;3.35;;;;;;;4.79;66.36;98829.22;4483722;32;20084;-79
2023/01/11 06:43:45;;;;;;;12.80;4.47;;;;;;;4.55;67.07;98822.13;4483997;32;20330;-82
2023/01/11 06:46:15;;;;;;;13.43;4.07;;;;;;;4.32;67.70;98818.41;4484391;32;20116;-80
2023/01/11 06:48:40;;;;;;;11.43;3.75;;;;;;;4.72;66.94;98820.69;4468974;32;20536;-79
2023/01/11 06:51:06;;;;;;;12.30;3.90;;;;;;;4.73;66.52;98842.41;4483669;32;20088;-81
2023/01/11 06:53:31;;;;;;;14.43;5.22;;;;;;;4.92;65.48;98845.34;4484878;32;20341;-80
2023/01/11 06:55:57;;;;;;;14.32;5.50;;;;;;;5.20;64.49;98840.13;4484225;32;20089;-83
2023/01/11 06:58:23;;;;;;;11.35;4.00;;;;;;;4.85;65.30;98847.28;4469952;32;20092;-80
2023/01/11 07:00:50;;;;;;;10.98;4.07;;;;;;;4.63;66.57;98864.47;4464934;32;20088;-83
2023/01/11 07:03:16;;;;;;;10.13;3.80;;;;;;;5.34;64.56;98867.56;4473031;32;81083;-80
2023/01/11 07:05:43;;;;;;;12.35;4.50;;;;;;;4.99;65.14;98875.59;4469750;32;20180;-85
2023/01/11 07:08:08;;;;;;;12.30;4.30;;;;;;;5.72;62.87;98874.16;4457174;32;20405;-82
2023/01/11 07:10:34;;;;;;;14.87;4.45;;;;;;;5.44;63.67;98858.50;4484874;32;20114;-80
2023/01/11 07:12:59;;;;;;;14.20;4.85;;;;;;;5.58;62.96;98866.78;4486353;32;20154;-83
2023/01/11 07:15:25;;;;;;;10.38;3.90;;;;;;;6.03;61.93;98873.13;4483958;31;20180;-82
2023/01/11 07:17:54;;;;;;;12.48;3.90;;;;;;;5.58;63.42;98876.34;4485977;31;20118;-83
2023/01/11 07:20:21;;;;;;;10.50;4.25;;;;;;;5.53;63.74;98886.13;4485847;32;20092;-81
2023/01/11 07:22:46;;;;;;;12.75;4.62;;;;;;;5.34;64.22;98886.69;4474142;32;20444;-85
2023/01/11 07:25:12;;;;;;;11.18;3.75;;;;;;;5.68;63.35;98890.84;4472757;32;20100;-83
2023/01/11 07:27:37;;;;;;;10.95;3.78;;;;;;;6.06;62.19;98889.53;4470679;32;20085;-82
2023/01/11 07:30:03;;;;;;;12.35;4.55;;;;;;;6.06;61.77;98901.78;4470417;32;20108;-82
2023/01/11 07:32:28;;;;;;;13.13;5.28;;;;;;;6.24;61.34;98908.16;4470978;32;20107;-81
2023/01/11 07:34:54;;;;;;;12.32;4.53;;;;;;;6.41;60.97;98910.16;4471270;32;20157;-81
2023/01/11 07:37:20;;;;;;;12.57;4.00;;;;;;;6.33;61.08;98907.81;4468941;32;20307;-82
2023/01/11 07:39:46;;;;;;;12.57;4.03;;;;;;;6.35;60.89;98913.00;4456449;32;20097;-80
2023/01/11 07:44:55;;;;;;;12.13;4.62;;;;;;;6.29;61.21;98908.81;4482518;32;20123;-81
2023/01/11 07:47:20;;;;;;;10.95;3.90;;;;;;;6.01;61.78;98899.34;4485539;32;20118;-81
2023/01/11 07:49:46;;;;;;;13.02;4.10;;;;;;;6.62;60.56;98898.91;4485297;32;20429;-81
2023/01/11 07:52:11;;;;;;;10.65;3.47;;;;;;;6.60;60.88;98907.72;4468103;32;20100;-82
2023/01/11 07:54:36;;;;;;;14.48;4.70;;;;;;;7.09;59.70;98905.91;4482755;32;20127;-80
2023/01/11 07:57:02;;;;;;;10.88;3.75;;;;;;;6.59;60.55;98912.13;4469809;32;20449;-80
2023/01/11 07:59:29;;;;;;;12.63;3.75;;;;;;;6.54;60.48;98903.56;4485712;32;20109;-80
2023/01/11 08:01:54;;;;;;;11.90;3.50;;;;;;;6.70;60.49;98893.38;4487212;32;20106;-81
2023/01/11 08:04:20;;;;;;;8.93;2.90;;;;;;;7.11;58.92;98883.13;4487669;32;20104;-84
2023/01/11 08:06:45;;;;;;;9.20;3.28;;;;;;;6.95;58.71;98893.31;4487690;32;20092;-83
2023/01/11 08:09:11;;;;;;;9.35;2.95;;;;;;;6.90;58.40;98890.03;4486829;32;20137;-83
2023/01/11 08:14:38;;;;;;;10.85;3.30;;;;;;;6.95;57.86;98905.56;4488025;32;20142;-82
2023/01/11 08:17:08;;;;;;;11.68;3.45;;;;;;;7.40;57.33;98896.84;4486530;32;20088;-83
2023/01/11 08:19:34;;;;;;;12.60;4.37;;;;;;;7.50;57.48;98911.28;4487847;32;20115;-83
2023/01/11 08:21:59;;;;;;;11.20;4.30;;;;;;;7.44;57.82;98922.03;4473701;32;20349;-83
2023/01/11 08:24:25;;;;;;;11.95;4.43;;;;;;;7.17;58.76;98921.34;4487763;32;20100;-83
2023/01/11 08:26:51;;;;;;;13.95;5.30;;;;;;;6.84;59.91;98922.53;4487973;32;20075;-83
2023/01/11 08:29:16;;;;;;;12.85;4.93;;;;;;;7.11;59.29;98917.19;4460565;32;20160;-83
2023/01/11 08:31:45;;;;;;;14.68;5.18;;;;;;;7.36;58.56;98911.84;4473928;32;20111;-83
2023/01/11 08:34:11;;;;;;;12.37;4.50;;;;;;;6.65;61.57;98929.38;4473997;32;20123;-83
2023/01/11 08:36:36;;;;;;;12.02;4.43;;;;;;;6.63;61.69;98921.56;4473872;32;20100;-83
2023/01/11 08:39:02;;;;;;;12.18;4.00;;;;;;;6.56;62.01;98919.22;4487961;32;20096;-83
2023/01/11 08:41:27;;;;;;;12.32;4.05;;;;;;;6.77;61.25;98917.59;4473561;32;20489;-83
2023/01/11 08:43:53;;;;;;;10.07;3.58;;;;;;;6.62;60.96;98932.09;4487637;32;20097;-82
2023/01/11 08:46:18;;;;;;;11.10;3.30;;;;;;;7.36;58.86;98931.94;4487741;32;20118;-82
2023/01/11 08:48:45;;;;;;;10.43;3.10;;;;;;;7.12;58.95;98933.75;4487704;32;20136;-82
2023/01/11 08:51:12;;;;;;;9.60;3.12;;;;;;;7.24;58.11;98928.03;4473610;32;20103;-82
2023/01/11 08:53:37;;;;;;;9.70;2.92;;;;;;;7.61;57.12;98916.94;4487766;32;20108;-82
2023/01/11 08:56:03;;;;;;;10.25;2.90;;;;;;;7.43;56.19;98925.53;4487673;32;20467;-82
2023/01/11 08:58:29;;;;;;;10.82;3.30;;;;;;;7.78;55.67;98923.25;4473514;32;20148;-82
2023/01/11 09:00:56;;;;;;;11.60;2.90;;;;;;;8.16;53.77;98916.41;4487636;32;20114;-82
2023/01/11 09:03:22;;;;;;;12.55;3.53;;;;;;;8.25;54.25;98916.03;4487675;32;20088;-82
2023/01/11 09:05:47;;;;;;;11.95;3.75;;;;;;;8.32;53.97;98918.37;4487363;32;20255;-82
2023/01/11 09:08:12;;;;;;;11.57;4.37;;;;;;;7.73;56.01;98920.00;4473315;32;20124;-82
2023/01/11 09:10:38;;;;;;;11.10;3.72;;;;;;;8.08;55.84;98926.41;4486693;32;20111;-83
2023/01/11 09:13:03;;;;;;;9.60;3.15;;;;;;;8.49;53.91;98929.03;4487564;32;20096;-82
2023/01/11 09:15:29;;;;;;;9.77;3.30;;;;;;;8.17;55.83;98935.63;4473162;32;20147;-82
2023/01/11 09:17:54;;;;;;;9.73;3.33;;;;;;;8.52;54.05;98934.16;4473235;32;20087;-82
2023/01/11 09:20:20;;;;;;;9.52;3.37;;;;;;;8.39;54.44;98928.56;4487630;32;20103;-82
2023/01/11 09:22:50;;;;;;;9.30;3.25;;;;;;;8.56;53.54;98929.62;4487445;32;20162;-82
2023/01/11 09:25:16;;;;;;;10.98;3.30;;;;;;;8.12;55.06;98927.13;4473299;32;20172;-82
2023/01/11 09:27:44;;;;;;;13.00;3.58;;;;;;;8.26;54.60;98932.63;4473252;32;20128;-82
2023/01/11 09:30:12;;;;;;;12.23;3.37;;;;;;;8.46;54.53;98921.31;4487471;32;20152;-82
2023/01/11 09:32:37;;;;;;;12.13;3.55;;;;;;;8.60;53.86;98924.16;4473189;32;20169;-82
2023/01/11 09:35:03;;;;;;;11.57;3.97;;;;;;;8.81;53.69;98918.87;4473322;32;20381;-82
2023/01/11 09:37:29;;;;;;;11.23;4.25;;;;;;;8.73;53.42;98913.97;4487456;32;20138;-82
2023/01/11 09:39:56;;;;;;;12.95;4.28;;;;;;;8.70;53.87;98919.34;4487383;32;20141;-82
2023/01/11 09:42:30;;;;;;;12.65;4.35;;;;;;;8.60;54.54;98918.06;4473064;32;20096;-83
2023/01/11 09:45:04;;;;;;;12.60;4.43;;;;;;;8.69;54.22;98924.69;4487329;32;20115;-82
2023/01/11 09:47:50;;;;;;;11.65;4.37;;;;;;;8.97;53.45;98921.66;4473446;32;20084;-82
2023/01/11 09:50:25;;;;;;;10.90;4.07;;;;;;;8.70;53.87;98923.78;4473199;32;20096;-82
2023/01/11 09:53:02;;;;;;;14.43;4.05;;;;;;;8.83;53.33;98914.41;4459890;32;20101;-82
2023/01/11 09:55:38;;;;;;;12.35;3.70;;;;;;;8.72;52.98;98909.63;4473375;32;20510;-82
2023/01/11 09:58:21;;;;;;;9.55;3.30;;;;;;;8.76;52.74;98913.81;4473084;32;20168;-82
2023/01/11 10:01:24;;;;;;;12.23;4.03;;;;;;;9.03;52.67;98910.87;4473540;32;20103;-82
2023/01/11 10:04:21;;;;;;;8.80;2.92;;;;;;;9.00;53.21;98906.62;4473270;32;20109;-82
2023/01/11 10:06:59;;;;;;;10.38;3.42;;;;;;;9.17;51.86;98899.69;4473536;32;20146;-82
2023/01/11 10:09:40;;;;;;;;;;;;;;;9.31;51.58;98897.28;4487783;32;20167;-82
2023/01/11 10:12:24;;;;;;;8.52;2.62;;;;;;;8.96;52.15;98896.28;4473044;32;19971;-82
2023/01/11 10:14:52;;;;;;;8.68;2.67;;;;;;;9.07;51.58;98886.16;4487219;32;20118;-82
2023/01/11 10:17:40;;;;;;;8.20;2.55;;;;;;;9.22;51.50;98895.94;4487164;32;20084;-82
2023/01/11 10:20:26;;;;;;;8.07;2.50;;;;;;;9.37;51.00;98885.63;4487344;32;20578;-82
2023/01/11 10:22:56;;;;;;;10.18;2.95;;;;;;;9.22;51.25;98887.22;4472415;32;20098;-82
2023/01/11 10:25:33;;;;;;;7.57;2.20;;;;;;;9.27;50.63;98881.72;4473027;32;20127;-82
2023/01/11 10:28:01;;;;;;;7.47;2.35;;;;;;;9.51;49.53;98869.19;4474046;32;20108;-83
2023/01/11 10:33:49;;;;;;;4.90;1.65;;;;;;;9.42;50.20;98873.94;4471196;32;20084;-82
2023/01/11 10:36:40;;;;;;;6.93;1.73;;;;;;;9.65;49.25;98871.97;4487055;32;20089;-82
2023/01/11 10:42:09;;;;;;;5.68;1.77;;;;;;;9.87;48.46;98877.03;4413098;32;20119;-82
2023/01/11 10:44:53;;;;;;;5.68;1.77;;;;;;;9.99;48.37;98880.81;4422606;32;20107;-82
2023/01/11 10:47:21;;;;;;;5.18;1.58;;;;;;;9.90;48.02;98870.75;4422520;32;20123;-83
2023/01/11 10:50:02;;;;;;;5.50;1.60;;;;;;;9.78;47.92;98873.06;4422637;32;20097;-83
2023/01/11 10:52:54;;;;;;;5.43;1.60;;;;;;;10.17;47.91;98879.87;4422568;32;20136;-82
2023/01/11 10:55:38;;;;;;;5.53;1.75;;;;;;;9.62;49.07;98880.87;4396430;32;20073;-83
2023/01/11 10:58:15;;;;;;;7.28;1.95;;;;;;;10.20;47.38;98874.47;4422521;32;20106;-82
2023/01/11 11:00:43;;;;;;;5.90;2.05;;;;;;;10.53;46.61;98878.94;4422638;32;20114;-83
2023/01/11 11:03:26;;;;;;;;;;;;;;;10.04;47.75;98878.78;4422809;32;20117;-82
2023/01/11 11:06:21;;;;;;;7.78;2.35;;;;;;;10.23;47.98;98883.97;4422190;32;19991;-82
2023/01/11 11:08:57;;;;;;;8.75;2.95;;;;;;;10.26;48.57;98875.03;4422233;32;20517;-82
2023/01/11 11:11:39;;;;;;;10.20;3.15;;;;;;;10.42;48.62;98870.72;4422222;32;20102;-83
2023/01/11 11:14:20;;;;;;;9.60;3.17;;;;;;;10.31;49.37;98873.91;4422443;32;20402;-83
2023/01/11 11:17:00;;;;;;;9.88;3.05;;;;;;;9.92;50.02;98877.62;4429489;32;20165;-83
2023/01/11 11:19:31;;;;;;;9.45;3.28;;;;;;;10.18;49.22;98857.06;4486767;32;20080;-82
2023/01/11 11:21:56;;;;;;;9.18;2.92;;;;;;;9.99;50.05;98855.34;4472162;32;20127;-82
2023/01/11 11:24:31;;;;;;;8.18;2.60;;;;;;;10.15;49.88;98849.28;4486379;32;20140;-83
2023/01/11 11:27:06;;;;;;;8.40;2.60;;;;;;;10.50;48.01;98839.56;4459788;32;20077;-83
2023/01/11 11:29:31;;;;;;;9.88;2.72;;;;;;;10.50;48.10;98836.09;4472264;32;20523;-83
2023/01/11 11:32:00;;;;;;;6.78;2.12;;;;;;;10.33;47.74;98837.81;4472115;32;20119;-82
2023/01/11 11:34:26;;;;;;;9.57;2.40;;;;;;;10.70;47.01;98835.87;4487848;32;20114;-82
2023/01/11 11:36:52;;;;;;;7.72;2.47;;;;;;;10.56;47.54;98833.13;4474118;32;20144;-83
2023/01/11 11:39:26;;;;;;;8.80;2.62;;;;;;;10.66;46.88;98834.31;4473915;32;20100;-83
2023/01/11 11:42:13;;;;;;;7.70;2.33;;;;;;;10.04;48.12;98837.56;4488386;32;20127;-82
2023/01/11 11:44:39;;;;;;;7.00;2.22;;;;;;;10.40;47.71;98836.56;4487951;32;20376;-83
2023/01/11 11:47:10;;;;;;;8.82;2.10;;;;;;;10.68;47.38;98837.75;4487917;32;20098;-83
2023/01/11 11:49:37;;;;;;;7.45;2.37;;;;;;;10.77;46.97;98831.09;4474013;32;20099;-83
2023/01/11 11:52:03;;;;;;;7.55;2.30;;;;;;;10.87;46.80;98836.72;4488242;32;20096;-83
2023/01/11 11:54:42;;;;;;;7.43;2.25;;;;;;;10.85;47.20;98841.22;4473875;32;20143;-83
2023/01/11 11:57:17;;;;;;;8.65;2.90;;;;;;;10.73;46.94;98840.97;4474085;32;20085;-83
2023/01/11 11:59:47;;;;;;;8.52;2.40;;;;;;;11.05;46.08;98841.00;4473807;32;20139;-83
2023/01/11 12:02:28;;;;;;;9.65;2.58;;;;;;;11.08;46.21;98830.25;4473931;32;20745;-83
2023/01/11 12:04:59;;;;;;;7.60;2.35;;;;;;;11.04;46.71;98836.63;4473778;32;20440;-83
2023/01/11 12:07:51;;;;;;;9.07;2.78;;;;;;;11.08;46.65;98832.06;4460771;32;20088;-82
2023/01/11 12:10:24;;;;;;;9.35;2.83;;;;;;;11.19;46.21;98834.94;4484193;32;20156;-83
2023/01/11 12:12:55;;;;;;;8.60;2.80;;;;;;;11.16;46.34;98835.97;4473841;32;20730;-83
2023/01/11 12:15:29;;;;;;;8.82;2.70;;;;;;;11.11;46.86;98845.06;4473926;32;20092;-82